N7TA KOGD-KSGU
Flight info
| Callsign | N7TA |
|---|---|
| Flight time | 0h 45m |
| Altitude | 16000 |
| Route | FFU V21 DTA MLF/N0434F150 EHK/N0428F140 |
| Aircraft | C750/M-SBDE3FGHRWXY/S |
Departure
| Time | 2026-04-25 15:31 |
|---|---|
| Airport | Ogden Hinckley Airport (KOGD) |
Arrival
| Time | 2026-04-25 16:16 |
|---|---|
| Airport | St George Regional Airport (KSGU) |
| Time | Latitude | Longitude | Altitude | Speed | Heading |
|---|---|---|---|---|---|
| 2026-04-25 15:12 | 41.19385 | -112.00959 | 4447 ft | 0 kts | 44° |
| 2026-04-25 15:25 | 41.19390 | -112.00953 | 4447 ft | 3 kts | 43° |
| 2026-04-25 15:25 | 41.19411 | -112.00933 | 4447 ft | 4 kts | 23° |
| 2026-04-25 15:25 | 41.19448 | -112.00929 | 4447 ft | 7 kts | 358° |
| 2026-04-25 15:25 | 41.19489 | -112.00912 | 4446 ft | 6 kts | 37° |
| 2026-04-25 15:26 | 41.19525 | -112.00870 | 4446 ft | 7 kts | 37° |
| 2026-04-25 15:26 | 41.19554 | -112.00831 | 4446 ft | 6 kts | 46° |
| 2026-04-25 15:26 | 41.19582 | -112.00792 | 4445 ft | 6 kts | 46° |
| 2026-04-25 15:26 | 41.19623 | -112.00735 | 4445 ft | 11 kts | 46° |
| 2026-04-25 15:27 | 41.19686 | -112.00654 | 4444 ft | 13 kts | 45° |
| 2026-04-25 15:27 | 41.19746 | -112.00573 | 4443 ft | 12 kts | 45° |
| 2026-04-25 15:27 | 41.19859 | -112.00422 | 4441 ft | 11 kts | 45° |
| 2026-04-25 15:28 | 41.19911 | -112.00352 | 4441 ft | 10 kts | 45° |
| 2026-04-25 15:28 | 41.19963 | -112.00287 | 4440 ft | 11 kts | 43° |
| 2026-04-25 15:28 | 41.20018 | -112.00215 | 4439 ft | 12 kts | 45° |
| 2026-04-25 15:28 | 41.20075 | -112.00140 | 4439 ft | 11 kts | 45° |
| 2026-04-25 15:29 | 41.20131 | -112.00073 | 4438 ft | 10 kts | 28° |
| 2026-04-25 15:29 | 41.20196 | -112.00037 | 4438 ft | 10 kts | 31° |
| 2026-04-25 15:29 | 41.20248 | -111.99974 | 4437 ft | 10 kts | 45° |
| 2026-04-25 15:29 | 41.20300 | -111.99930 | 4437 ft | 8 kts | 350° |
| 2026-04-25 15:30 | 41.20340 | -111.99973 | 4437 ft | 8 kts | 308° |
| 2026-04-25 15:30 | 41.20357 | -112.00038 | 4437 ft | 7 kts | 250° |
| 2026-04-25 15:30 | 41.20289 | -112.00132 | 4438 ft | 43 kts | 224° |
| 2026-04-25 15:30 | 41.19803 | -112.00770 | 4445 ft | 142 kts | 225° |
| 2026-04-25 15:31 | 41.19035 | -112.01796 | 4735 ft | 169 kts | 229° |
| 2026-04-25 15:31 | 41.18440 | -112.03216 | 5111 ft | 186 kts | 251° |
| 2026-04-25 15:31 | 41.18133 | -112.04935 | 5781 ft | 193 kts | 256° |
| 2026-04-25 15:31 | 41.17787 | -112.06751 | 6136 ft | 221 kts | 255° |
| 2026-04-25 15:32 | 41.17297 | -112.08872 | 6222 ft | 259 kts | 248° |
| 2026-04-25 15:32 | 41.16375 | -112.11043 | 6914 ft | 272 kts | 238° |
| 2026-04-25 15:32 | 41.15433 | -112.13177 | 8252 ft | 267 kts | 243° |
| 2026-04-25 15:33 | 41.13900 | -112.17687 | 10364 ft | 274 kts | 247° |
| 2026-04-25 15:33 | 41.13060 | -112.20079 | 10666 ft | 299 kts | 246° |
| 2026-04-25 15:33 | 41.12114 | -112.22679 | 10783 ft | 326 kts | 245° |
| 2026-04-25 15:33 | 41.11127 | -112.25436 | 11473 ft | 329 kts | 246° |
| 2026-04-25 15:34 | 41.10158 | -112.28172 | 12384 ft | 328 kts | 246° |
| 2026-04-25 15:34 | 41.09179 | -112.30928 | 13184 ft | 330 kts | 246° |
| 2026-04-25 15:34 | 41.08163 | -112.33658 | 13934 ft | 332 kts | 242° |
| 2026-04-25 15:34 | 41.07724 | -112.34518 | 14125 ft | 335 kts | 236° |
| 2026-04-25 15:35 | 41.02322 | -112.38713 | 15829 ft | 362 kts | 194° |
| 2026-04-25 15:35 | 40.99715 | -112.38684 | 15915 ft | 393 kts | 176° |
| 2026-04-25 15:35 | 40.97037 | -112.37478 | 15941 ft | 418 kts | 161° |
| 2026-04-25 15:36 | 40.91638 | -112.33972 | 15957 ft | 439 kts | 158° |
| 2026-04-25 15:36 | 40.88909 | -112.32246 | 15961 ft | 441 kts | 159° |
| 2026-04-25 15:36 | 40.86114 | -112.30542 | 15966 ft | 442 kts | 160° |
| 2026-04-25 15:37 | 40.83324 | -112.28802 | 15968 ft | 444 kts | 159° |
| 2026-04-25 15:37 | 40.80541 | -112.27022 | 15949 ft | 444 kts | 158° |
| 2026-04-25 15:37 | 40.77748 | -112.25259 | 15972 ft | 445 kts | 159° |
| 2026-04-25 15:37 | 40.74945 | -112.23524 | 15976 ft | 445 kts | 159° |
| 2026-04-25 15:38 | 40.72143 | -112.21782 | 15980 ft | 445 kts | 159° |
| 2026-04-25 15:38 | 40.69350 | -112.20023 | 15988 ft | 445 kts | 158° |
| 2026-04-25 15:38 | 40.66557 | -112.18265 | 15993 ft | 445 kts | 159° |
| 2026-04-25 15:38 | 40.63753 | -112.16529 | 16010 ft | 445 kts | 159° |
| 2026-04-25 15:39 | 40.60951 | -112.14793 | 16008 ft | 445 kts | 159° |
| 2026-04-25 15:39 | 40.58158 | -112.13049 | 16017 ft | 443 kts | 159° |
| 2026-04-25 15:39 | 40.55373 | -112.11306 | 16014 ft | 444 kts | 159° |
| 2026-04-25 15:39 | 40.52588 | -112.09578 | 16009 ft | 443 kts | 159° |
| 2026-04-25 15:40 | 40.49832 | -112.07872 | 16006 ft | 443 kts | 159° |
| 2026-04-25 15:40 | 40.48887 | -112.07285 | 16001 ft | 443 kts | 159° |
| 2026-04-25 15:40 | 40.44257 | -112.04415 | 15975 ft | 444 kts | 159° |
| 2026-04-25 15:40 | 40.41459 | -112.02679 | 15959 ft | 445 kts | 159° |
| 2026-04-25 15:41 | 40.38663 | -112.00945 | 15957 ft | 443 kts | 159° |
| 2026-04-25 15:41 | 40.35867 | -111.99219 | 15945 ft | 444 kts | 159° |
| 2026-04-25 15:41 | 40.33068 | -111.97494 | 15952 ft | 444 kts | 159° |
| 2026-04-25 15:41 | 40.30211 | -111.96028 | 15929 ft | 438 kts | 169° |
| 2026-04-25 15:42 | 40.27220 | -111.95588 | 15951 ft | 430 kts | 184° |
| 2026-04-25 15:42 | 40.24291 | -111.96135 | 15950 ft | 424 kts | 198° |
| 2026-04-25 15:42 | 40.21564 | -111.97526 | 15971 ft | 419 kts | 207° |
| 2026-04-25 15:42 | 40.18906 | -111.99104 | 15972 ft | 420 kts | 207° |
| 2026-04-25 15:43 | 40.16255 | -112.00672 | 15968 ft | 416 kts | 207° |
| 2026-04-25 15:43 | 40.13603 | -112.02225 | 15957 ft | 417 kts | 207° |
| 2026-04-25 15:43 | 40.10956 | -112.03776 | 15952 ft | 417 kts | 207° |
| 2026-04-25 15:43 | 40.08310 | -112.05332 | 15943 ft | 417 kts | 207° |
| 2026-04-25 15:44 | 40.05655 | -112.06891 | 15934 ft | 417 kts | 207° |
| 2026-04-25 15:44 | 40.03007 | -112.08440 | 15898 ft | 418 kts | 207° |
| 2026-04-25 15:44 | 40.00382 | -112.09975 | 15906 ft | 419 kts | 207° |
| 2026-04-25 15:44 | 39.97725 | -112.11528 | 15902 ft | 419 kts | 207° |
| 2026-04-25 15:45 | 39.95062 | -112.13083 | 15904 ft | 419 kts | 207° |
| 2026-04-25 15:45 | 39.92403 | -112.14640 | 15895 ft | 419 kts | 206° |
| 2026-04-25 15:45 | 39.89733 | -112.16196 | 15895 ft | 419 kts | 206° |
| 2026-04-25 15:45 | 39.88835 | -112.16718 | 15896 ft | 419 kts | 206° |
| 2026-04-25 15:46 | 39.84409 | -112.19295 | 15895 ft | 419 kts | 206° |
| 2026-04-25 15:46 | 39.81747 | -112.20845 | 15892 ft | 419 kts | 206° |
| 2026-04-25 15:46 | 39.79081 | -112.22395 | 15888 ft | 420 kts | 206° |
| 2026-04-25 15:46 | 39.76409 | -112.23946 | 15891 ft | 420 kts | 206° |
| 2026-04-25 15:47 | 39.73738 | -112.25495 | 15890 ft | 420 kts | 206° |
| 2026-04-25 15:47 | 39.71074 | -112.27041 | 15890 ft | 420 kts | 206° |
| 2026-04-25 15:47 | 39.68406 | -112.28586 | 15890 ft | 420 kts | 206° |
| 2026-04-25 15:47 | 39.65736 | -112.30131 | 15888 ft | 420 kts | 206° |
| 2026-04-25 15:48 | 39.63063 | -112.31676 | 15883 ft | 420 kts | 206° |
| 2026-04-25 15:48 | 39.60397 | -112.33217 | 15889 ft | 420 kts | 206° |
| 2026-04-25 15:48 | 39.57759 | -112.34739 | 15888 ft | 420 kts | 206° |
| 2026-04-25 15:48 | 39.55085 | -112.36281 | 15888 ft | 421 kts | 206° |
| 2026-04-25 15:49 | 39.52408 | -112.37823 | 15888 ft | 421 kts | 206° |
| 2026-04-25 15:49 | 39.49733 | -112.39363 | 15889 ft | 421 kts | 206° |
| 2026-04-25 15:49 | 39.47054 | -112.40904 | 15890 ft | 421 kts | 206° |
| 2026-04-25 15:49 | 39.44377 | -112.42443 | 15885 ft | 421 kts | 206° |
| 2026-04-25 15:50 | 39.41700 | -112.43980 | 15883 ft | 421 kts | 206° |
| 2026-04-25 15:50 | 39.39019 | -112.45518 | 15884 ft | 421 kts | 206° |
| 2026-04-25 15:50 | 39.36343 | -112.47052 | 15894 ft | 422 kts | 206° |
| 2026-04-25 15:50 | 39.34567 | -112.48069 | 15893 ft | 421 kts | 206° |
| 2026-04-25 15:51 | 39.31884 | -112.49605 | 15879 ft | 422 kts | 206° |
| 2026-04-25 15:51 | 39.30068 | -112.50644 | 15887 ft | 422 kts | 206° |
| 2026-04-25 15:51 | 39.26499 | -112.52621 | 15885 ft | 420 kts | 204° |
| 2026-04-25 15:51 | 39.23797 | -112.54055 | 15884 ft | 420 kts | 204° |
| 2026-04-25 15:52 | 39.21102 | -112.55517 | 15883 ft | 419 kts | 205° |
| 2026-04-25 15:52 | 39.18421 | -112.57003 | 15883 ft | 419 kts | 205° |
| 2026-04-25 15:52 | 39.15733 | -112.58473 | 15881 ft | 420 kts | 205° |
| 2026-04-25 15:52 | 39.13034 | -112.59928 | 15886 ft | 420 kts | 205° |
| 2026-04-25 15:53 | 39.10335 | -112.61391 | 15889 ft | 421 kts | 205° |
| 2026-04-25 15:53 | 39.07637 | -112.62864 | 15885 ft | 421 kts | 205° |
| 2026-04-25 15:53 | 39.04935 | -112.64334 | 15887 ft | 422 kts | 205° |
| 2026-04-25 15:53 | 39.02230 | -112.65796 | 15885 ft | 422 kts | 204° |
| 2026-04-25 15:54 | 38.99518 | -112.67264 | 15882 ft | 422 kts | 205° |
| 2026-04-25 15:54 | 38.96813 | -112.68731 | 15883 ft | 422 kts | 205° |
| 2026-04-25 15:54 | 38.94104 | -112.70197 | 15878 ft | 423 kts | 205° |
| 2026-04-25 15:54 | 38.91393 | -112.71662 | 15879 ft | 423 kts | 205° |
| 2026-04-25 15:55 | 38.88713 | -112.73109 | 15883 ft | 422 kts | 205° |
| 2026-04-25 15:55 | 38.86003 | -112.74571 | 15882 ft | 422 kts | 205° |
| 2026-04-25 15:55 | 38.83288 | -112.76035 | 15878 ft | 422 kts | 205° |
| 2026-04-25 15:55 | 38.80597 | -112.77484 | 15881 ft | 419 kts | 205° |
| 2026-04-25 15:56 | 38.77904 | -112.78934 | 15875 ft | 420 kts | 205° |
| 2026-04-25 15:56 | 38.75212 | -112.80383 | 15867 ft | 420 kts | 205° |
| 2026-04-25 15:56 | 38.72516 | -112.81832 | 15875 ft | 421 kts | 205° |
| 2026-04-25 15:56 | 38.69808 | -112.83285 | 15868 ft | 421 kts | 205° |
| 2026-04-25 15:57 | 38.67104 | -112.84737 | 15906 ft | 422 kts | 205° |
| 2026-04-25 15:57 | 38.64393 | -112.86191 | 15922 ft | 422 kts | 205° |
| 2026-04-25 15:57 | 38.61679 | -112.87644 | 15928 ft | 422 kts | 205° |
| 2026-04-25 15:57 | 38.58972 | -112.89092 | 15931 ft | 422 kts | 205° |
| 2026-04-25 15:58 | 38.56304 | -112.90518 | 15931 ft | 420 kts | 205° |
| 2026-04-25 15:58 | 38.53607 | -112.91960 | 15953 ft | 420 kts | 205° |
| 2026-04-25 15:58 | 38.50908 | -112.93402 | 15957 ft | 419 kts | 205° |
| 2026-04-25 15:58 | 38.48217 | -112.94837 | 15965 ft | 420 kts | 205° |
| 2026-04-25 15:59 | 38.45516 | -112.96277 | 15962 ft | 420 kts | 205° |
| 2026-04-25 15:59 | 38.42817 | -112.97714 | 15965 ft | 420 kts | 205° |
| 2026-04-25 15:59 | 38.40117 | -112.99152 | 15971 ft | 421 kts | 205° |
| 2026-04-25 15:59 | 38.37411 | -113.00581 | 15970 ft | 420 kts | 204° |
| 2026-04-25 16:00 | 38.34573 | -113.01470 | 15950 ft | 425 kts | 189° |
| 2026-04-25 16:00 | 38.32616 | -113.01669 | 15971 ft | 423 kts | 187° |
| 2026-04-25 16:00 | 38.28677 | -113.02019 | 15967 ft | 426 kts | 187° |
| 2026-04-25 16:00 | 38.25716 | -113.02314 | 15952 ft | 427 kts | 187° |
| 2026-04-25 16:01 | 38.22753 | -113.02613 | 15943 ft | 428 kts | 187° |
| 2026-04-25 16:01 | 38.19816 | -113.02891 | 15929 ft | 429 kts | 187° |
| 2026-04-25 16:01 | 38.16833 | -113.03169 | 15909 ft | 429 kts | 187° |
| 2026-04-25 16:01 | 38.13858 | -113.03458 | 15894 ft | 428 kts | 187° |
| 2026-04-25 16:02 | 38.10897 | -113.03748 | 15866 ft | 427 kts | 187° |
| 2026-04-25 16:02 | 38.07946 | -113.04028 | 15867 ft | 423 kts | 187° |
| 2026-04-25 16:02 | 38.05008 | -113.04308 | 15855 ft | 424 kts | 187° |
| 2026-04-25 16:02 | 38.02067 | -113.04592 | 15858 ft | 423 kts | 187° |
| 2026-04-25 16:03 | 37.99136 | -113.04874 | 15968 ft | 422 kts | 187° |
| 2026-04-25 16:03 | 37.96203 | -113.05154 | 16002 ft | 423 kts | 187° |
| 2026-04-25 16:03 | 37.93264 | -113.05435 | 16015 ft | 424 kts | 187° |
| 2026-04-25 16:03 | 37.90317 | -113.05716 | 16030 ft | 425 kts | 187° |
| 2026-04-25 16:04 | 37.87406 | -113.05992 | 16034 ft | 413 kts | 187° |
| 2026-04-25 16:04 | 37.84527 | -113.06267 | 16048 ft | 416 kts | 187° |
| 2026-04-25 16:04 | 37.81634 | -113.06547 | 16061 ft | 419 kts | 187° |
| 2026-04-25 16:04 | 37.78730 | -113.06909 | 16050 ft | 419 kts | 192° |
| 2026-04-25 16:05 | 37.75950 | -113.07953 | 16078 ft | 417 kts | 201° |
| 2026-04-25 16:05 | 37.73186 | -113.09116 | 16088 ft | 419 kts | 200° |
| 2026-04-25 16:05 | 37.67602 | -113.11355 | 16081 ft | 421 kts | 200° |
| 2026-04-25 16:06 | 37.64822 | -113.12498 | 16083 ft | 421 kts | 200° |
| 2026-04-25 16:06 | 37.62040 | -113.13647 | 16083 ft | 420 kts | 200° |
| 2026-04-25 16:06 | 37.59255 | -113.14778 | 16055 ft | 416 kts | 200° |
| 2026-04-25 16:06 | 37.56645 | -113.15824 | 15287 ft | 385 kts | 200° |
| 2026-04-25 16:07 | 37.54199 | -113.16819 | 14719 ft | 356 kts | 200° |
| 2026-04-25 16:07 | 37.52626 | -113.17466 | 14364 ft | 347 kts | 200° |
| 2026-04-25 16:07 | 37.49596 | -113.18703 | 13673 ft | 345 kts | 199° |
| 2026-04-25 16:07 | 37.47327 | -113.19661 | 13127 ft | 342 kts | 202° |
| 2026-04-25 16:08 | 37.45246 | -113.21091 | 12624 ft | 341 kts | 211° |
| 2026-04-25 16:08 | 37.43204 | -113.22636 | 12125 ft | 344 kts | 211° |
| 2026-04-25 16:08 | 37.41145 | -113.24142 | 11602 ft | 340 kts | 210° |
| 2026-04-25 16:08 | 37.39106 | -113.25612 | 11088 ft | 328 kts | 210° |
| 2026-04-25 16:09 | 37.37200 | -113.27005 | 10613 ft | 306 kts | 210° |
| 2026-04-25 16:09 | 37.35423 | -113.28316 | 10171 ft | 288 kts | 210° |
| 2026-04-25 16:09 | 37.33720 | -113.29562 | 9757 ft | 279 kts | 210° |
| 2026-04-25 16:09 | 37.32072 | -113.30763 | 9340 ft | 275 kts | 210° |
| 2026-04-25 16:10 | 37.30396 | -113.31985 | 8933 ft | 274 kts | 210° |
| 2026-04-25 16:10 | 37.28809 | -113.33146 | 8536 ft | 262 kts | 210° |
| 2026-04-25 16:10 | 37.27261 | -113.34279 | 8159 ft | 252 kts | 210° |
| 2026-04-25 16:10 | 37.25770 | -113.35367 | 7790 ft | 244 kts | 210° |
| 2026-04-25 16:11 | 37.24324 | -113.36419 | 7450 ft | 235 kts | 209° |
| 2026-04-25 16:11 | 37.22937 | -113.37431 | 7099 ft | 227 kts | 210° |
| 2026-04-25 16:11 | 37.21571 | -113.38426 | 6776 ft | 227 kts | 209° |
| 2026-04-25 16:11 | 37.20206 | -113.39418 | 6446 ft | 225 kts | 209° |
| 2026-04-25 16:12 | 37.18884 | -113.40383 | 6120 ft | 215 kts | 209° |
| 2026-04-25 16:12 | 37.17618 | -113.41300 | 5816 ft | 206 kts | 209° |
| 2026-04-25 16:12 | 37.16459 | -113.42136 | 5531 ft | 179 kts | 209° |
| 2026-04-25 16:12 | 37.15770 | -113.42638 | 5361 ft | 160 kts | 209° |
| 2026-04-25 16:13 | 37.14621 | -113.43472 | 5093 ft | 133 kts | 209° |
| 2026-04-25 16:13 | 37.13830 | -113.44043 | 5002 ft | 131 kts | 209° |
| 2026-04-25 16:13 | 37.13039 | -113.44613 | 4830 ft | 131 kts | 209° |
| 2026-04-25 16:13 | 37.12242 | -113.45189 | 4655 ft | 133 kts | 209° |
| 2026-04-25 16:14 | 37.11440 | -113.45768 | 4469 ft | 132 kts | 209° |
| 2026-04-25 16:14 | 37.10647 | -113.46341 | 4287 ft | 131 kts | 209° |
| 2026-04-25 16:14 | 37.09853 | -113.46916 | 4105 ft | 132 kts | 210° |
| 2026-04-25 16:14 | 37.09056 | -113.47501 | 3921 ft | 133 kts | 212° |
| 2026-04-25 16:15 | 37.08318 | -113.48182 | 3785 ft | 129 kts | 217° |
| 2026-04-25 16:15 | 37.07576 | -113.48813 | 3613 ft | 129 kts | 211° |
| 2026-04-25 16:15 | 37.06791 | -113.49332 | 3463 ft | 128 kts | 206° |
| 2026-04-25 16:15 | 37.05969 | -113.49787 | 3222 ft | 131 kts | 203° |
| 2026-04-25 16:16 | 37.05140 | -113.50233 | 3002 ft | 128 kts | 204° |
| 2026-04-25 16:16 | 37.04346 | -113.50657 | 2870 ft | 119 kts | 204° |
| 2026-04-25 16:16 | 37.03690 | -113.51005 | 2864 ft | 78 kts | 203° |
| 2026-04-25 16:16 | 37.03317 | -113.51201 | 2862 ft | 37 kts | 204° |
| 2026-04-25 16:17 | 37.03185 | -113.51252 | 2863 ft | 10 kts | 162° |
| 2026-04-25 16:17 | 37.03144 | -113.51197 | 2863 ft | 7 kts | 115° |
| 2026-04-25 16:17 | 37.03125 | -113.51141 | 2863 ft | 6 kts | 113° |
| 2026-04-25 16:17 | 37.03109 | -113.51094 | 2864 ft | 6 kts | 113° |
| 2026-04-25 16:18 | 37.03087 | -113.51052 | 2867 ft | 6 kts | 143° |
| 2026-04-25 16:18 | 37.03075 | -113.51040 | 2868 ft | 7 kts | 138° |
| 2026-04-25 16:18 | 37.03049 | -113.50981 | 2871 ft | 3 kts | 112° |
| 2026-04-25 16:18 | 37.03047 | -113.50976 | 2871 ft | 0 kts | 112° |